sensor_id;sensor_type;location;lat;lon;timestamp;P1;durP1;ratioP1;P2;durP2;ratioP2
20739;SDS011;10530;49.968;19.844;2023-05-31T00:01:30;6.75;;;2.47;;
20739;SDS011;10530;49.968;19.844;2023-05-31T00:06:33;5.95;;;2.42;;
20739;SDS011;10530;49.968;19.844;2023-05-31T00:11:37;9.25;;;2.67;;
20739;SDS011;10530;49.968;19.844;2023-05-31T00:16:40;10.03;;;2.57;;
20739;SDS011;10530;49.968;19.844;2023-05-31T00:22:03;5.75;;;2.13;;
20739;SDS011;10530;49.968;19.844;2023-05-31T00:27:06;7.28;;;2.30;;
20739;SDS011;10530;49.968;19.844;2023-05-31T00:32:09;7.70;;;2.10;;
20739;SDS011;10530;49.968;19.844;2023-05-31T00:37:11;4.80;;;2.08;;
20739;SDS011;10530;49.968;19.844;2023-05-31T00:42:14;5.53;;;2.07;;
20739;SDS011;10530;49.968;19.844;2023-05-31T00:47:17;4.57;;;1.90;;
20739;SDS011;10530;49.968;19.844;2023-05-31T00:52:20;8.27;;;2.33;;
20739;SDS011;10530;49.968;19.844;2023-05-31T00:57:23;7.03;;;3.00;;
20739;SDS011;10530;49.968;19.844;2023-05-31T01:02:26;7.03;;;2.17;;
20739;SDS011;10530;49.968;19.844;2023-05-31T01:07:29;4.53;;;1.73;;
20739;SDS011;10530;49.968;19.844;2023-05-31T01:13:07;6.07;;;2.20;;
20739;SDS011;10530;49.968;19.844;2023-05-31T01:18:15;6.18;;;2.25;;
20739;SDS011;10530;49.968;19.844;2023-05-31T01:28:53;6.93;;;2.35;;
20739;SDS011;10530;49.968;19.844;2023-05-31T01:33:58;6.00;;;1.90;;
20739;SDS011;10530;49.968;19.844;2023-05-31T01:39:01;6.47;;;2.20;;
20739;SDS011;10530;49.968;19.844;2023-05-31T01:44:06;7.65;;;2.50;;
20739;SDS011;10530;49.968;19.844;2023-05-31T01:49:10;9.02;;;2.38;;
20739;SDS011;10530;49.968;19.844;2023-05-31T01:54:13;8.10;;;2.50;;
20739;SDS011;10530;49.968;19.844;2023-05-31T01:59:16;9.57;;;2.20;;
20739;SDS011;10530;49.968;19.844;2023-05-31T02:04:20;6.97;;;2.75;;
20739;SDS011;10530;49.968;19.844;2023-05-31T02:09:23;6.68;;;2.55;;
20739;SDS011;10530;49.968;19.844;2023-05-31T02:14:26;8.60;;;2.40;;
20739;SDS011;10530;49.968;19.844;2023-05-31T02:19:29;9.45;;;2.75;;
20739;SDS011;10530;49.968;19.844;2023-05-31T02:24:33;9.43;;;2.73;;
20739;SDS011;10530;49.968;19.844;2023-05-31T02:29:35;5.45;;;2.22;;
20739;SDS011;10530;49.968;19.844;2023-05-31T02:34:38;5.07;;;2.00;;
20739;SDS011;10530;49.968;19.844;2023-05-31T02:39:41;7.40;;;2.13;;
20739;SDS011;10530;49.968;19.844;2023-05-31T02:44:45;6.15;;;2.42;;
20739;SDS011;10530;49.968;19.844;2023-05-31T02:49:48;7.27;;;2.23;;
20739;SDS011;10530;49.968;19.844;2023-05-31T02:54:51;7.25;;;2.35;;
20739;SDS011;10530;49.968;19.844;2023-05-31T03:00:00;6.97;;;2.25;;
20739;SDS011;10530;49.968;19.844;2023-05-31T03:05:11;6.00;;;2.22;;
20739;SDS011;10530;49.968;19.844;2023-05-31T03:10:13;6.57;;;2.53;;
20739;SDS011;10530;49.968;19.844;2023-05-31T03:15:17;5.80;;;2.57;;
20739;SDS011;10530;49.968;19.844;2023-05-31T03:20:20;6.65;;;2.38;;
20739;SDS011;10530;49.968;19.844;2023-05-31T03:25:24;5.75;;;2.22;;
20739;SDS011;10530;49.968;19.844;2023-05-31T03:30:27;6.28;;;2.00;;
20739;SDS011;10530;49.968;19.844;2023-05-31T03:35:33;7.13;;;2.42;;
20739;SDS011;10530;49.968;19.844;2023-05-31T03:40:38;6.67;;;2.30;;
20739;SDS011;10530;49.968;19.844;2023-05-31T03:45:41;9.95;;;2.55;;
20739;SDS011;10530;49.968;19.844;2023-05-31T03:50:44;6.45;;;2.63;;
20739;SDS011;10530;49.968;19.844;2023-05-31T03:55:48;7.90;;;3.20;;
20739;SDS011;10530;49.968;19.844;2023-05-31T04:00:51;9.40;;;2.83;;
20739;SDS011;10530;49.968;19.844;2023-05-31T04:05:54;6.77;;;2.83;;
20739;SDS011;10530;49.968;19.844;2023-05-31T04:10:56;8.02;;;2.90;;
20739;SDS011;10530;49.968;19.844;2023-05-31T04:16:00;5.80;;;2.28;;
20739;SDS011;10530;49.968;19.844;2023-05-31T04:21:03;8.00;;;2.55;;
20739;SDS011;10530;49.968;19.844;2023-05-31T04:26:07;7.05;;;2.97;;
20739;SDS011;10530;49.968;19.844;2023-05-31T04:31:10;7.17;;;2.70;;
20739;SDS011;10530;49.968;19.844;2023-05-31T04:36:14;9.52;;;3.03;;
20739;SDS011;10530;49.968;19.844;2023-05-31T04:41:18;6.78;;;2.88;;
20739;SDS011;10530;49.968;19.844;2023-05-31T04:46:21;6.80;;;2.53;;
20739;SDS011;10530;49.968;19.844;2023-05-31T04:51:25;6.50;;;2.83;;
20739;SDS011;10530;49.968;19.844;2023-05-31T04:56:28;7.60;;;2.57;;
20739;SDS011;10530;49.968;19.844;2023-05-31T05:01:32;7.03;;;3.20;;
20739;SDS011;10530;49.968;19.844;2023-05-31T05:06:40;7.05;;;2.90;;
20739;SDS011;10530;49.968;19.844;2023-05-31T05:11:44;9.82;;;3.42;;
20739;SDS011;10530;49.968;19.844;2023-05-31T05:16:47;8.52;;;3.05;;
20739;SDS011;10530;49.968;19.844;2023-05-31T05:21:51;14.93;;;3.20;;
20739;SDS011;10530;49.968;19.844;2023-05-31T05:26:56;10.98;;;3.10;;
20739;SDS011;10530;49.968;19.844;2023-05-31T05:32:01;8.57;;;3.35;;
20739;SDS011;10530;49.968;19.844;2023-05-31T05:37:04;8.77;;;3.25;;
20739;SDS011;10530;49.968;19.844;2023-05-31T05:42:07;7.70;;;2.90;;
20739;SDS011;10530;49.968;19.844;2023-05-31T05:47:10;11.47;;;3.63;;
20739;SDS011;10530;49.968;19.844;2023-05-31T05:52:14;8.07;;;3.00;;
20739;SDS011;10530;49.968;19.844;2023-05-31T05:57:17;9.07;;;3.10;;
20739;SDS011;10530;49.968;19.844;2023-05-31T06:02:22;6.68;;;2.90;;
20739;SDS011;10530;49.968;19.844;2023-05-31T06:07:28;9.38;;;3.17;;
20739;SDS011;10530;49.968;19.844;2023-05-31T06:12:32;7.80;;;3.00;;
20739;SDS011;10530;49.968;19.844;2023-05-31T06:17:35;9.32;;;3.20;;
20739;SDS011;10530;49.968;19.844;2023-05-31T06:22:39;9.75;;;3.03;;
20739;SDS011;10530;49.968;19.844;2023-05-31T06:27:43;11.10;;;3.22;;
20739;SDS011;10530;49.968;19.844;2023-05-31T06:32:47;7.40;;;2.80;;
20739;SDS011;10530;49.968;19.844;2023-05-31T06:37:57;8.67;;;3.20;;
20739;SDS011;10530;49.968;19.844;2023-05-31T06:43:00;9.88;;;3.20;;
20739;SDS011;10530;49.968;19.844;2023-05-31T06:48:21;9.93;;;3.10;;
20739;SDS011;10530;49.968;19.844;2023-05-31T06:53:26;9.52;;;3.17;;
20739;SDS011;10530;49.968;19.844;2023-05-31T06:58:37;9.32;;;3.58;;
20739;SDS011;10530;49.968;19.844;2023-05-31T07:03:40;7.90;;;3.27;;
20739;SDS011;10530;49.968;19.844;2023-05-31T07:08:43;8.07;;;3.17;;
20739;SDS011;10530;49.968;19.844;2023-05-31T07:14:08;7.65;;;3.25;;
20739;SDS011;10530;49.968;19.844;2023-05-31T07:19:12;8.73;;;2.95;;
20739;SDS011;10530;49.968;19.844;2023-05-31T07:24:15;8.65;;;3.28;;
20739;SDS011;10530;49.968;19.844;2023-05-31T07:29:18;8.47;;;2.80;;
20739;SDS011;10530;49.968;19.844;2023-05-31T07:34:21;8.18;;;2.97;;
20739;SDS011;10530;49.968;19.844;2023-05-31T07:39:24;5.95;;;2.50;;
20739;SDS011;10530;49.968;19.844;2023-05-31T07:44:29;8.27;;;2.90;;
20739;SDS011;10530;49.968;19.844;2023-05-31T07:49:32;6.28;;;2.45;;
20739;SDS011;10530;49.968;19.844;2023-05-31T07:54:35;6.37;;;2.80;;
20739;SDS011;10530;49.968;19.844;2023-05-31T07:59:38;6.70;;;2.88;;
20739;SDS011;10530;49.968;19.844;2023-05-31T08:04:40;8.57;;;2.80;;
20739;SDS011;10530;49.968;19.844;2023-05-31T08:09:43;8.55;;;2.40;;
20739;SDS011;10530;49.968;19.844;2023-05-31T08:14:46;7.07;;;2.17;;
20739;SDS011;10530;49.968;19.844;2023-05-31T08:19:49;5.77;;;2.10;;
20739;SDS011;10530;49.968;19.844;2023-05-31T08:24:52;7.75;;;2.28;;
20739;SDS011;10530;49.968;19.844;2023-05-31T08:29:55;7.75;;;2.30;;
20739;SDS011;10530;49.968;19.844;2023-05-31T08:34:58;7.47;;;2.30;;
20739;SDS011;10530;49.968;19.844;2023-05-31T08:40:01;6.13;;;2.42;;
20739;SDS011;10530;49.968;19.844;2023-05-31T08:45:06;4.80;;;2.20;;
20739;SDS011;10530;49.968;19.844;2023-05-31T08:50:11;5.10;;;2.15;;
20739;SDS011;10530;49.968;19.844;2023-05-31T08:55:15;7.70;;;2.25;;
20739;SDS011;10530;49.968;19.844;2023-05-31T09:00:20;5.50;;;2.13;;
20739;SDS011;10530;49.968;19.844;2023-05-31T09:05:24;5.53;;;1.77;;
20739;SDS011;10530;49.968;19.844;2023-05-31T09:10:28;5.23;;;2.20;;
20739;SDS011;10530;49.968;19.844;2023-05-31T09:15:31;6.15;;;1.95;;
20739;SDS011;10530;49.968;19.844;2023-05-31T09:20:38;4.10;;;1.88;;
20739;SDS011;10530;49.968;19.844;2023-05-31T09:25:42;5.38;;;1.80;;
20739;SDS011;10530;49.968;19.844;2023-05-31T09:30:45;5.07;;;1.83;;
20739;SDS011;10530;49.968;19.844;2023-05-31T09:36:02;5.77;;;1.90;;
20739;SDS011;10530;49.968;19.844;2023-05-31T09:41:18;6.57;;;2.00;;
20739;SDS011;10530;49.968;19.844;2023-05-31T09:46:23;5.95;;;1.75;;
20739;SDS011;10530;49.968;19.844;2023-05-31T09:51:27;5.10;;;2.03;;
20739;SDS011;10530;49.968;19.844;2023-05-31T09:56:30;5.25;;;2.17;;
20739;SDS011;10530;49.968;19.844;2023-05-31T10:01:37;6.13;;;2.00;;
20739;SDS011;10530;49.968;19.844;2023-05-31T10:06:40;4.57;;;2.00;;
20739;SDS011;10530;49.968;19.844;2023-05-31T10:11:46;5.22;;;1.98;;
20739;SDS011;10530;49.968;19.844;2023-05-31T10:16:56;5.05;;;2.40;;
20739;SDS011;10530;49.968;19.844;2023-05-31T10:22:03;4.38;;;1.90;;
20739;SDS011;10530;49.968;19.844;2023-05-31T10:27:11;5.23;;;2.10;;
20739;SDS011;10530;49.968;19.844;2023-05-31T10:32:28;7.38;;;2.55;;
20739;SDS011;10530;49.968;19.844;2023-05-31T10:37:34;5.32;;;2.30;;
20739;SDS011;10530;49.968;19.844;2023-05-31T10:42:42;7.68;;;2.30;;
20739;SDS011;10530;49.968;19.844;2023-05-31T10:47:53;9.82;;;2.50;;
20739;SDS011;10530;49.968;19.844;2023-05-31T10:53:21;7.80;;;2.57;;
20739;SDS011;10530;49.968;19.844;2023-05-31T10:58:26;6.10;;;2.30;;
20739;SDS011;10530;49.968;19.844;2023-05-31T11:03:50;5.05;;;2.20;;
20739;SDS011;10530;49.968;19.844;2023-05-31T11:08:58;5.72;;;2.10;;
20739;SDS011;10530;49.968;19.844;2023-05-31T11:19:29;5.77;;;2.30;;
20739;SDS011;10530;49.968;19.844;2023-05-31T11:29:55;7.30;;;2.33;;
20739;SDS011;10530;49.968;19.844;2023-05-31T11:35:01;4.25;;;2.13;;
20739;SDS011;10530;49.968;19.844;2023-05-31T11:45:14;7.17;;;2.40;;
20739;SDS011;10530;49.968;19.844;2023-05-31T11:50:24;6.00;;;2.50;;
20739;SDS011;10530;49.968;19.844;2023-05-31T11:55:31;6.72;;;2.35;;
20739;SDS011;10530;49.968;19.844;2023-05-31T12:00:47;6.28;;;2.35;;
20739;SDS011;10530;49.968;19.844;2023-05-31T12:05:51;5.20;;;2.20;;
20739;SDS011;10530;49.968;19.844;2023-05-31T12:11:02;9.23;;;2.57;;
20739;SDS011;10530;49.968;19.844;2023-05-31T12:16:05;5.18;;;2.35;;
20739;SDS011;10530;49.968;19.844;2023-05-31T12:21:09;8.05;;;2.40;;
20739;SDS011;10530;49.968;19.844;2023-05-31T12:26:17;5.78;;;2.38;;
20739;SDS011;10530;49.968;19.844;2023-05-31T12:31:21;6.32;;;2.70;;
20739;SDS011;10530;49.968;19.844;2023-05-31T12:36:25;6.07;;;2.33;;
20739;SDS011;10530;49.968;19.844;2023-05-31T12:41:28;6.15;;;2.30;;
20739;SDS011;10530;49.968;19.844;2023-05-31T12:46:38;7.10;;;2.35;;
20739;SDS011;10530;49.968;19.844;2023-05-31T12:51:45;7.35;;;2.40;;
20739;SDS011;10530;49.968;19.844;2023-05-31T12:56:47;4.78;;;2.15;;
20739;SDS011;10530;49.968;19.844;2023-05-31T13:01:50;7.60;;;2.57;;
20739;SDS011;10530;49.968;19.844;2023-05-31T13:06:54;7.78;;;2.70;;
20739;SDS011;10530;49.968;19.844;2023-05-31T13:12:00;6.60;;;2.67;;
20739;SDS011;10530;49.968;19.844;2023-05-31T13:17:03;6.60;;;2.33;;
20739;SDS011;10530;49.968;19.844;2023-05-31T13:22:06;6.10;;;2.40;;
20739;SDS011;10530;49.968;19.844;2023-05-31T13:27:09;6.23;;;2.20;;
20739;SDS011;10530;49.968;19.844;2023-05-31T13:32:12;5.55;;;2.40;;
20739;SDS011;10530;49.968;19.844;2023-05-31T13:37:15;4.72;;;2.30;;
20739;SDS011;10530;49.968;19.844;2023-05-31T13:42:23;6.68;;;2.35;;
20739;SDS011;10530;49.968;19.844;2023-05-31T13:47:26;8.30;;;2.45;;
20739;SDS011;10530;49.968;19.844;2023-05-31T13:52:29;4.93;;;2.20;;
20739;SDS011;10530;49.968;19.844;2023-05-31T13:57:32;5.45;;;2.00;;
20739;SDS011;10530;49.968;19.844;2023-05-31T14:02:35;5.07;;;2.30;;
20739;SDS011;10530;49.968;19.844;2023-05-31T14:07:38;7.93;;;2.28;;
20739;SDS011;10530;49.968;19.844;2023-05-31T14:12:41;6.55;;;2.25;;
20739;SDS011;10530;49.968;19.844;2023-05-31T14:17:44;6.70;;;2.00;;
20739;SDS011;10530;49.968;19.844;2023-05-31T14:22:47;6.20;;;1.92;;
20739;SDS011;10530;49.968;19.844;2023-05-31T14:27:50;6.32;;;1.75;;
20739;SDS011;10530;49.968;19.844;2023-05-31T14:32:54;6.50;;;2.08;;
20739;SDS011;10530;49.968;19.844;2023-05-31T14:37:57;4.70;;;2.00;;
20739;SDS011;10530;49.968;19.844;2023-05-31T14:43:20;7.13;;;1.70;;
20739;SDS011;10530;49.968;19.844;2023-05-31T14:48:23;5.20;;;1.83;;
20739;SDS011;10530;49.968;19.844;2023-05-31T14:53:26;4.03;;;1.90;;
20739;SDS011;10530;49.968;19.844;2023-05-31T14:58:28;6.72;;;2.10;;
20739;SDS011;10530;49.968;19.844;2023-05-31T15:03:31;6.10;;;2.20;;
20739;SDS011;10530;49.968;19.844;2023-05-31T15:08:34;7.50;;;2.30;;
20739;SDS011;10530;49.968;19.844;2023-05-31T15:13:38;4.78;;;2.00;;
20739;SDS011;10530;49.968;19.844;2023-05-31T15:18:41;4.50;;;1.83;;
20739;SDS011;10530;49.968;19.844;2023-05-31T15:23:44;5.88;;;1.65;;
20739;SDS011;10530;49.968;19.844;2023-05-31T15:28:48;5.55;;;2.25;;
20739;SDS011;10530;49.968;19.844;2023-05-31T15:33:51;5.73;;;2.00;;
20739;SDS011;10530;49.968;19.844;2023-05-31T15:38:58;4.53;;;2.00;;
20739;SDS011;10530;49.968;19.844;2023-05-31T15:44:03;13.75;;;2.63;;
20739;SDS011;10530;49.968;19.844;2023-05-31T15:49:06;4.72;;;2.03;;
20739;SDS011;10530;49.968;19.844;2023-05-31T15:54:10;4.63;;;1.80;;
20739;SDS011;10530;49.968;19.844;2023-05-31T15:59:12;4.50;;;1.87;;
20739;SDS011;10530;49.968;19.844;2023-05-31T16:04:15;6.55;;;2.08;;
20739;SDS011;10530;49.968;19.844;2023-05-31T16:09:18;4.95;;;2.10;;
20739;SDS011;10530;49.968;19.844;2023-05-31T16:14:21;4.97;;;1.90;;
20739;SDS011;10530;49.968;19.844;2023-05-31T16:19:24;4.47;;;1.83;;
20739;SDS011;10530;49.968;19.844;2023-05-31T16:24:28;5.27;;;2.00;;
20739;SDS011;10530;49.968;19.844;2023-05-31T16:29:31;4.90;;;1.80;;
20739;SDS011;10530;49.968;19.844;2023-05-31T16:34:34;6.07;;;1.98;;
20739;SDS011;10530;49.968;19.844;2023-05-31T16:39:37;5.15;;;1.73;;
20739;SDS011;10530;49.968;19.844;2023-05-31T16:44:39;4.63;;;2.00;;
20739;SDS011;10530;49.968;19.844;2023-05-31T16:49:45;5.13;;;1.80;;
20739;SDS011;10530;49.968;19.844;2023-05-31T16:54:47;4.85;;;1.98;;
20739;SDS011;10530;49.968;19.844;2023-05-31T16:59:50;7.07;;;2.10;;
20739;SDS011;10530;49.968;19.844;2023-05-31T17:04:53;7.93;;;1.90;;
20739;SDS011;10530;49.968;19.844;2023-05-31T17:09:56;4.93;;;1.70;;
20739;SDS011;10530;49.968;19.844;2023-05-31T17:14:59;5.73;;;1.93;;
20739;SDS011;10530;49.968;19.844;2023-05-31T17:20:02;6.63;;;1.70;;
20739;SDS011;10530;49.968;19.844;2023-05-31T17:25:07;5.00;;;1.90;;
20739;SDS011;10530;49.968;19.844;2023-05-31T17:30:10;4.40;;;1.75;;
20739;SDS011;10530;49.968;19.844;2023-05-31T17:35:13;5.35;;;1.80;;
20739;SDS011;10530;49.968;19.844;2023-05-31T17:40:16;7.80;;;1.70;;
20739;SDS011;10530;49.968;19.844;2023-05-31T17:45:19;5.22;;;1.75;;
20739;SDS011;10530;49.968;19.844;2023-05-31T17:50:22;4.55;;;1.70;;
20739;SDS011;10530;49.968;19.844;2023-05-31T17:55:25;6.68;;;2.20;;
20739;SDS011;10530;49.968;19.844;2023-05-31T18:00:28;5.85;;;1.88;;
20739;SDS011;10530;49.968;19.844;2023-05-31T18:05:31;4.53;;;2.13;;
20739;SDS011;10530;49.968;19.844;2023-05-31T18:10:34;5.38;;;2.38;;
20739;SDS011;10530;49.968;19.844;2023-05-31T18:15:37;6.28;;;2.20;;
20739;SDS011;10530;49.968;19.844;2023-05-31T18:20:40;9.02;;;2.08;;
20739;SDS011;10530;49.968;19.844;2023-05-31T18:25:43;5.50;;;2.10;;
20739;SDS011;10530;49.968;19.844;2023-05-31T18:30:46;8.27;;;2.60;;
20739;SDS011;10530;49.968;19.844;2023-05-31T18:35:51;7.68;;;2.30;;
20739;SDS011;10530;49.968;19.844;2023-05-31T18:40:53;6.53;;;2.50;;
20739;SDS011;10530;49.968;19.844;2023-05-31T18:45:56;6.20;;;2.20;;
20739;SDS011;10530;49.968;19.844;2023-05-31T18:50:59;7.43;;;2.50;;
20739;SDS011;10530;49.968;19.844;2023-05-31T18:56:03;23.50;;;2.87;;
20739;SDS011;10530;49.968;19.844;2023-05-31T19:01:06;8.77;;;2.35;;
20739;SDS011;10530;49.968;19.844;2023-05-31T19:06:09;13.18;;;2.60;;
20739;SDS011;10530;49.968;19.844;2023-05-31T19:11:12;7.15;;;2.80;;
20739;SDS011;10530;49.968;19.844;2023-05-31T19:16:15;7.60;;;2.80;;
20739;SDS011;10530;49.968;19.844;2023-05-31T19:21:18;8.93;;;3.20;;
20739;SDS011;10530;49.968;19.844;2023-05-31T19:26:21;6.47;;;2.70;;
20739;SDS011;10530;49.968;19.844;2023-05-31T19:31:24;6.57;;;2.60;;
20739;SDS011;10530;49.968;19.844;2023-05-31T19:36:27;6.65;;;2.58;;
20739;SDS011;10530;49.968;19.844;2023-05-31T19:41:30;6.43;;;2.67;;
20739;SDS011;10530;49.968;19.844;2023-05-31T19:46:33;7.00;;;2.53;;
20739;SDS011;10530;49.968;19.844;2023-05-31T19:51:37;7.13;;;2.47;;
20739;SDS011;10530;49.968;19.844;2023-05-31T19:56:40;4.93;;;2.28;;
20739;SDS011;10530;49.968;19.844;2023-05-31T20:01:43;5.63;;;2.40;;
20739;SDS011;10530;49.968;19.844;2023-05-31T20:06:46;6.35;;;2.35;;
20739;SDS011;10530;49.968;19.844;2023-05-31T20:11:50;6.37;;;2.60;;
20739;SDS011;10530;49.968;19.844;2023-05-31T20:16:53;8.55;;;2.50;;
20739;SDS011;10530;49.968;19.844;2023-05-31T20:21:57;7.40;;;2.60;;
20739;SDS011;10530;49.968;19.844;2023-05-31T20:27:00;8.48;;;3.00;;
20739;SDS011;10530;49.968;19.844;2023-05-31T20:32:04;8.45;;;2.92;;
20739;SDS011;10530;49.968;19.844;2023-05-31T20:37:07;7.83;;;2.73;;
20739;SDS011;10530;49.968;19.844;2023-05-31T20:42:10;7.40;;;3.30;;
20739;SDS011;10530;49.968;19.844;2023-05-31T20:47:13;7.88;;;3.58;;
20739;SDS011;10530;49.968;19.844;2023-05-31T20:52:17;7.43;;;3.22;;
20739;SDS011;10530;49.968;19.844;2023-05-31T20:57:21;6.93;;;3.08;;
20739;SDS011;10530;49.968;19.844;2023-05-31T21:02:24;8.30;;;3.27;;
20739;SDS011;10530;49.968;19.844;2023-05-31T21:07:27;10.13;;;3.58;;
20739;SDS011;10530;49.968;19.844;2023-05-31T21:12:30;7.97;;;3.30;;
20739;SDS011;10530;49.968;19.844;2023-05-31T21:17:33;8.77;;;3.17;;
20739;SDS011;10530;49.968;19.844;2023-05-31T21:22:36;12.15;;;4.63;;
20739;SDS011;10530;49.968;19.844;2023-05-31T21:27:39;8.77;;;3.87;;
20739;SDS011;10530;49.968;19.844;2023-05-31T21:32:43;8.63;;;3.67;;
20739;SDS011;10530;49.968;19.844;2023-05-31T21:37:46;8.18;;;3.92;;
20739;SDS011;10530;49.968;19.844;2023-05-31T21:42:49;11.95;;;4.25;;
20739;SDS011;10530;49.968;19.844;2023-05-31T21:47:52;10.55;;;4.95;;
20739;SDS011;10530;49.968;19.844;2023-05-31T21:52:55;11.47;;;4.87;;
20739;SDS011;10530;49.968;19.844;2023-05-31T21:57:58;14.48;;;4.38;;
20739;SDS011;10530;49.968;19.844;2023-05-31T22:03:01;13.20;;;5.68;;
20739;SDS011;10530;49.968;19.844;2023-05-31T22:08:04;10.95;;;5.10;;
20739;SDS011;10530;49.968;19.844;2023-05-31T22:13:08;12.43;;;5.47;;
20739;SDS011;10530;49.968;19.844;2023-05-31T22:18:11;11.47;;;5.10;;
20739;SDS011;10530;49.968;19.844;2023-05-31T22:23:16;15.85;;;5.13;;
20739;SDS011;10530;49.968;19.844;2023-05-31T22:28:18;13.73;;;4.75;;
20739;SDS011;10530;49.968;19.844;2023-05-31T22:33:22;10.85;;;4.25;;
20739;SDS011;10530;49.968;19.844;2023-05-31T22:38:25;11.02;;;4.07;;
20739;SDS011;10530;49.968;19.844;2023-05-31T22:43:27;10.70;;;5.07;;
20739;SDS011;10530;49.968;19.844;2023-05-31T22:48:30;11.43;;;4.50;;
20739;SDS011;10530;49.968;19.844;2023-05-31T22:53:34;8.93;;;4.15;;
20739;SDS011;10530;49.968;19.844;2023-05-31T22:58:37;13.85;;;5.07;;
20739;SDS011;10530;49.968;19.844;2023-05-31T23:03:40;10.93;;;4.65;;
20739;SDS011;10530;49.968;19.844;2023-05-31T23:08:43;10.17;;;5.77;;
20739;SDS011;10530;49.968;19.844;2023-05-31T23:13:46;12.25;;;5.50;;
20739;SDS011;10530;49.968;19.844;2023-05-31T23:18:49;11.55;;;5.15;;
20739;SDS011;10530;49.968;19.844;2023-05-31T23:23:53;13.57;;;5.60;;
20739;SDS011;10530;49.968;19.844;2023-05-31T23:28:56;10.93;;;4.70;;
20739;SDS011;10530;49.968;19.844;2023-05-31T23:33:58;11.03;;;4.97;;
20739;SDS011;10530;49.968;19.844;2023-05-31T23:39:01;11.15;;;5.15;;
20739;SDS011;10530;49.968;19.844;2023-05-31T23:44:04;10.27;;;4.97;;
20739;SDS011;10530;49.968;19.844;2023-05-31T23:49:07;10.45;;;5.28;;
20739;SDS011;10530;49.968;19.844;2023-05-31T23:54:11;11.90;;;5.20;;
20739;SDS011;10530;49.968;19.844;2023-05-31T23:59:14;13.97;;;5.57;;
